Time;durP1;ratioP1;P1;durP2;ratioP2;P2;SDS_P1;SDS_P2;PMS_P1;PMS_P2;Temp;Humidity;BMP_temperature;BMP_pressure;BME280_temperature;BME280_humidity;BME280_pressure;Samples;Min_cycle;Max_cycle;Signal;HPM_P1;HPM_P2
2021/12/11 00:00:28;;;;;;;24.60;13.25;;;;;;;;;;5053796;28;20035;-41
2021/12/11 00:03:00;;;;;;;27.38;12.98;;;;;;;;;;5050617;28;20052;-41
2021/12/11 00:05:26;;;;;;;35.10;11.48;;;;;;;;;;5053845;28;20482;-41
2021/12/11 00:07:51;;;;;;;23.40;11.55;;;;;;;;;;5053596;28;20489;-43
2021/12/11 00:10:24;;;;;;;26.98;11.98;;;;;;;;;;5053416;28;20069;-45
2021/12/11 00:12:55;;;;;;;27.08;11.40;;;;;;;;;;5054103;28;20099;-45
2021/12/11 00:15:39;;;;;;;28.85;11.73;;;;;;;;;;5051005;28;20056;-43
2021/12/11 00:18:12;;;;;;;20.33;10.48;;;;;;;;;;5049807;28;20033;-42
2021/12/11 00:20:43;;;;;;;18.85;10.57;;;;;;;;;;5053727;28;20100;-43
2021/12/11 00:23:08;;;;;;;36.40;14.40;;;;;;;;;;5053787;28;20017;-44
2021/12/11 00:25:44;;;;;;;35.30;13.85;;;;;;;;;;5053894;28;20725;-44
2021/12/11 00:28:10;;;;;;;25.50;8.93;;;;;;;;;;5050904;28;20029;-45
2021/12/11 00:30:41;;;;;;;34.22;14.77;;;;;;;;;;5053536;28;20025;-45
2021/12/11 00:33:15;;;;;;;29.98;13.35;;;;;;;;;;5054144;28;20112;-42
2021/12/11 00:35:42;;;;;;;40.60;16.35;;;;;;;;;;5051119;28;20025;-43
2021/12/11 00:38:11;;;;;;;32.78;12.57;;;;;;;;;;5053301;28;20021;-41
2021/12/11 00:40:38;;;;;;;26.45;10.95;;;;;;;;;;5052462;28;20347;-42
2021/12/11 00:43:06;;;;;;;35.92;12.55;;;;;;;;;;5053139;28;20025;-41
2021/12/11 00:45:36;;;;;;;47.50;18.25;;;;;;;;;;5053572;28;20025;-41
2021/12/11 00:48:09;;;;;;;41.05;17.65;;;;;;;;;;5048664;28;20112;-41
2021/12/11 00:50:48;;;;;;;39.80;17.17;;;;;;;;;;5053357;28;20032;-43
2021/12/11 00:53:17;;;;;;;42.75;16.45;;;;;;;;;;5051339;28;20021;-43
2021/12/11 00:55:51;;;;;;;45.13;19.10;;;;;;;;;;5048398;28;20032;-44
2021/12/11 00:58:26;;;;;;;55.10;19.38;;;;;;;;;;5052779;28;20025;-44
2021/12/11 01:01:20;;;;;;;55.88;19.65;;;;;;;;;;5053120;28;20389;-43
2021/12/11 01:03:52;;;;;;;47.55;17.50;;;;;;;;;;5048485;28;20028;-47
2021/12/11 01:06:32;;;;;;;32.22;14.57;;;;;;;;;;5033106;28;20030;-42
2021/12/11 01:09:06;;;;;;;22.42;11.70;;;;;;;;;;5052424;28;20434;-45
2021/12/11 01:11:34;;;;;;;21.20;11.60;;;;;;;;;;5052870;28;20534;-46
2021/12/11 01:14:15;;;;;;;26.15;12.07;;;;;;;;;;5052021;28;20436;-42
2021/12/11 01:16:48;;;;;;;45.95;18.55;;;;;;;;;;5052493;28;20025;-45
2021/12/11 01:19:17;;;;;;;38.03;15.20;;;;;;;;;;5052632;28;20163;-43
2021/12/11 01:21:55;;;;;;;51.10;20.83;;;;;;;;;;5048219;28;20032;-43
2021/12/11 01:24:31;;;;;;;57.00;21.85;;;;;;;;;;5049796;28;20731;-44
2021/12/11 01:27:01;;;;;;;28.98;13.57;;;;;;;;;;5052291;28;20028;-42
2021/12/11 01:29:29;;;;;;;53.00;23.20;;;;;;;;;;5052321;28;20039;-42
2021/12/11 01:31:56;;;;;;;60.00;19.33;;;;;;;;;;5051498;28;20032;-42
2021/12/11 01:34:23;;;;;;;59.42;23.52;;;;;;;;;;5052144;28;20037;-45
2021/12/11 01:36:50;;;;;;;61.53;23.48;;;;;;;;;;5047083;28;20035;-43
2021/12/11 01:39:21;;;;;;;71.72;26.08;;;;;;;;;;5052300;28;20122;-41
2021/12/11 01:41:47;;;;;;;;;;;;;;;;;;5052924;28;20036;-42
2021/12/11 01:44:17;;;;;;;76.78;29.00;;;;;;;;;;5052591;28;19940;-43
2021/12/11 01:46:43;;;;;;;62.53;24.90;;;;;;;;;;5052262;28;20036;-43
2021/12/11 01:49:17;;;;;;;53.28;23.15;;;;;;;;;;5051608;28;20049;-43
2021/12/11 01:51:45;;;;;;;69.07;24.77;;;;;;;;;;5046805;28;20029;-41
2021/12/11 01:54:19;;;;;;;39.40;15.85;;;;;;;;;;5051725;28;20021;-43
2021/12/11 01:56:58;;;;;;;76.10;30.75;;;;;;;;;;5050336;28;20021;-41
2021/12/11 01:59:29;;;;;;;65.78;26.30;;;;;;;;;;5052978;28;20024;-42
2021/12/11 02:02:03;;;;;;;70.72;27.02;;;;;;;;;;5051575;28;20154;-42
2021/12/11 02:04:32;;;;;;;55.95;20.92;;;;;;;;;;5051424;28;20512;-41
2021/12/11 02:07:03;;;;;;;54.97;20.60;;;;;;;;;;5051764;28;20033;-41
2021/12/11 02:09:33;;;;;;;72.28;30.90;;;;;;;;;;5052646;28;20052;-41
2021/12/11 02:12:13;;;;;;;45.97;18.75;;;;;;;;;;5053206;28;20495;-41
2021/12/11 02:14:44;;;;;;;11.47;7.73;;;;;;;;;;5053234;28;20040;-40
2021/12/11 02:17:32;;;;;;;15.40;8.90;;;;;;;;;;5053092;28;20785;-41
2021/12/11 02:19:59;;;;;;;39.78;15.85;;;;;;;;;;5035089;28;20576;-41
2021/12/11 02:22:32;;;;;;;28.38;11.32;;;;;;;;;;5052699;28;20481;-41
2021/12/11 02:25:04;;;;;;;47.75;17.55;;;;;;;;;;5053037;28;20100;-40
2021/12/11 02:27:39;;;;;;;40.50;15.63;;;;;;;;;;5052667;28;20032;-41
2021/12/11 02:30:36;;;;;;;35.92;14.98;;;;;;;;;;5052576;28;20029;-41
2021/12/11 02:33:20;;;;;;;18.48;9.95;;;;;;;;;;5052795;28;20033;-42
2021/12/11 02:36:01;;;;;;;36.95;12.95;;;;;;;;;;5052526;28;20074;-41
2021/12/11 02:38:39;;;;;;;18.50;9.00;;;;;;;;;;5052810;28;20083;-41
2021/12/11 02:41:15;;;;;;;17.77;8.85;;;;;;;;;;5052774;28;20032;-40
2021/12/11 02:43:49;;;;;;;18.02;7.72;;;;;;;;;;5052709;28;20401;-41
2021/12/11 02:46:24;;;;;;;42.75;19.48;;;;;;;;;;5052664;28;20112;-42
2021/12/11 02:49:16;;;;;;;14.10;7.55;;;;;;;;;;5052290;28;20040;-41
2021/12/11 02:51:58;;;;;;;16.75;9.35;;;;;;;;;;5043882;28;20086;-41
2021/12/11 02:54:45;;;;;;;18.80;9.75;;;;;;;;;;5052248;28;20104;-41
2021/12/11 02:57:37;;;;;;;16.17;6.85;;;;;;;;;;5052553;28;20051;-41
2021/12/11 03:00:18;;;;;;;24.25;9.70;;;;;;;;;;5052537;28;20115;-43
2021/12/11 03:02:48;;;;;;;19.23;10.10;;;;;;;;;;5052237;28;20060;-42
2021/12/11 03:05:17;;;;;;;14.63;8.35;;;;;;;;;;5051596;28;20040;-43
2021/12/11 03:07:50;;;;;;;9.90;4.25;;;;;;;;;;5052014;28;20033;-42
2021/12/11 03:10:18;;;;;;;19.38;9.43;;;;;;;;;;5052126;28;20075;-41
2021/12/11 03:12:45;;;;;;;13.68;7.30;;;;;;;;;;5052388;28;20021;-43
2021/12/11 03:15:12;;;;;;;10.77;6.28;;;;;;;;;;5052395;28;20052;-43
2021/12/11 03:17:38;;;;;;;16.38;9.23;;;;;;;;;;5052332;28;20036;-43
2021/12/11 03:20:06;;;;;;;10.38;5.22;;;;;;;;;;5051949;28;20377;-43
2021/12/11 03:22:33;;;;;;;16.55;9.15;;;;;;;;;;5051976;28;20052;-43
2021/12/11 03:25:01;;;;;;;8.63;5.35;;;;;;;;;;5051950;28;20040;-42
2021/12/11 03:27:27;;;;;;;26.00;12.32;;;;;;;;;;5052207;28;20071;-42
2021/12/11 03:29:53;;;;;;;18.20;10.30;;;;;;;;;;5052119;28;20025;-42
2021/12/11 03:32:20;;;;;;;16.50;7.60;;;;;;;;;;5034117;28;20033;-43
2021/12/11 03:34:48;;;;;;;25.27;11.52;;;;;;;;;;5051890;28;20485;-42
2021/12/11 03:37:16;;;;;;;27.73;13.57;;;;;;;;;;5052179;28;20036;-43
2021/12/11 03:39:45;;;;;;;31.02;16.05;;;;;;;;;;5052133;28;20448;-42
2021/12/11 03:42:17;;;;;;;32.03;16.13;;;;;;;;;;5051854;28;20029;-42
2021/12/11 03:44:44;;;;;;;27.35;15.55;;;;;;;;;;5052134;28;20104;-42
2021/12/11 03:47:25;;;;;;;26.88;12.02;;;;;;;;;;5052098;28;20025;-42
2021/12/11 03:49:51;;;;;;;29.45;15.50;;;;;;;;;;5052084;28;20025;-42
2021/12/11 03:52:19;;;;;;;16.33;8.15;;;;;;;;;;5051699;28;20437;-42
2021/12/11 03:54:47;;;;;;;10.95;5.50;;;;;;;;;;5052052;28;20028;-42
2021/12/11 03:57:16;;;;;;;17.85;9.95;;;;;;;;;;5052060;28;20024;-42
2021/12/11 03:59:47;;;;;;;25.48;13.98;;;;;;;;;;5052017;28;20083;-42
2021/12/11 04:02:15;;;;;;;36.05;21.23;;;;;;;;;;5051896;28;20021;-42
2021/12/11 04:04:45;;;;;;;28.38;13.75;;;;;;;;;;5051954;28;20021;-42
2021/12/11 04:07:15;;;;;;;32.80;16.55;;;;;;;;;;5051575;28;20482;-42
2021/12/11 04:09:41;;;;;;;33.92;15.63;;;;;;;;;;5051639;28;20095;-41
2021/12/11 04:12:08;;;;;;;28.70;16.02;;;;;;;;;;5051798;28;20056;-41
2021/12/11 04:14:36;;;;;;;35.22;18.75;;;;;;;;;;5051547;28;20060;-41
2021/12/11 04:17:04;;;;;;;31.25;16.65;;;;;;;;;;5053860;28;20032;-41
2021/12/11 04:19:29;;;;;;;17.65;9.55;;;;;;;;;;5055387;28;20035;-40
2021/12/11 04:21:56;;;;;;;16.33;8.52;;;;;;;;;;5055307;28;20389;-41
2021/12/11 04:24:25;;;;;;;36.50;17.45;;;;;;;;;;5054920;28;20482;-41
2021/12/11 04:26:54;;;;;;;27.20;15.05;;;;;;;;;;5055200;28;20048;-41
2021/12/11 04:29:20;;;;;;;33.58;18.27;;;;;;;;;;5054844;28;20539;-41
2021/12/11 04:31:47;;;;;;;30.20;14.82;;;;;;;;;;5055145;28;20028;-40
2021/12/11 04:34:15;;;;;;;34.08;18.02;;;;;;;;;;5036906;28;20087;-42
2021/12/11 04:36:44;;;;;;;20.80;12.20;;;;;;;;;;5054721;28;20025;-41
2021/12/11 04:39:14;;;;;;;28.45;15.82;;;;;;;;;;5054679;28;20025;-41
2021/12/11 04:41:50;;;;;;;28.10;12.68;;;;;;;;;;5037199;28;20032;-41
2021/12/11 04:44:24;;;;;;;22.15;11.40;;;;;;;;;;5054628;28;20025;-41
2021/12/11 04:46:50;;;;;;;26.33;13.30;;;;;;;;;;5054600;28;20025;-41
2021/12/11 04:52:33;;;;;;;21.98;11.82;;;;;;;;;;5031284;28;20098;-41
2021/12/11 05:01:31;;;;;;;14.52;7.60;;;;;;;;;;5054333;28;20021;-41
2021/12/11 05:06:24;;;;;;;25.65;12.18;;;;;;;;;;5054559;28;20029;-40
2021/12/11 05:11:38;;;;;;;25.35;11.48;;;;;;;;;;5038625;28;20037;-41
2021/12/11 05:14:06;;;;;;;26.00;12.93;;;;;;;;;;5054044;28;20021;-40
2021/12/11 05:16:32;;;;;;;25.25;12.00;;;;;;;;;;5054345;28;20032;-40
2021/12/11 05:18:58;;;;;;;13.63;7.30;;;;;;;;;;5053884;28;20025;-40
2021/12/11 05:21:23;;;;;;;25.45;14.70;;;;;;;;;;5053911;28;20032;-41
2021/12/11 05:23:51;;;;;;;18.33;8.82;;;;;;;;;;5053790;28;20029;-41
2021/12/11 05:26:18;;;;;;;21.33;11.80;;;;;;;;;;5053532;28;20474;-41
2021/12/11 05:28:44;;;;;;;22.65;11.25;;;;;;;;;;5053570;28;20040;-41
2021/12/11 05:31:11;;;;;;;26.20;13.32;;;;;;;;;;5035822;28;20606;-41
2021/12/11 05:33:38;;;;;;;15.00;8.35;;;;;;;;;;5053950;28;20029;-41
2021/12/11 05:36:06;;;;;;;26.33;12.88;;;;;;;;;;5053910;28;20029;-42
2021/12/11 05:38:35;;;;;;;28.00;14.23;;;;;;;;;;5053824;28;20029;-41
2021/12/11 05:41:03;;;;;;;17.00;8.63;;;;;;;;;;5053745;28;20029;-41
2021/12/11 05:43:30;;;;;;;30.83;13.63;;;;;;;;;;5053760;28;20430;-41
2021/12/11 05:45:55;;;;;;;21.30;9.80;;;;;;;;;;5053669;28;20082;-41
2021/12/11 05:48:21;;;;;;;27.80;13.65;;;;;;;;;;5053319;28;20041;-41
2021/12/11 05:50:53;;;;;;;31.85;15.02;;;;;;;;;;5053568;28;20035;-41
2021/12/11 05:53:21;;;;;;;19.20;10.55;;;;;;;;;;5053169;28;20501;-41
2021/12/11 05:55:49;;;;;;;31.73;16.00;;;;;;;;;;5053205;28;20025;-41
2021/12/11 05:58:24;;;;;;;24.00;12.90;;;;;;;;;;5053481;28;20029;-41
2021/12/11 06:00:54;;;;;;;23.20;10.60;;;;;;;;;;5053198;28;20029;-41
2021/12/11 06:03:19;;;;;;;35.30;17.88;;;;;;;;;;5052898;28;20470;-40
2021/12/11 06:05:46;;;;;;;24.35;12.35;;;;;;;;;;5053320;28;20032;-43
2021/12/11 06:08:12;;;;;;;21.65;12.30;;;;;;;;;;5052920;28;20044;-44
2021/12/11 06:10:40;;;;;;;35.08;18.75;;;;;;;;;;5052648;28;20045;-45
2021/12/11 06:13:06;;;;;;;27.38;13.93;;;;;;;;;;5053199;28;20086;-42
2021/12/11 06:15:32;;;;;;;39.15;20.65;;;;;;;;;;5053088;28;20071;-44
2021/12/11 06:17:58;;;;;;;35.15;15.80;;;;;;;;;;5053106;28;20049;-41
2021/12/11 06:20:27;;;;;;;34.13;19.92;;;;;;;;;;5052799;28;20461;-42
2021/12/11 06:22:54;;;;;;;37.08;20.42;;;;;;;;;;5052686;28;20021;-41
2021/12/11 06:25:28;;;;;;;39.95;20.00;;;;;;;;;;5052696;28;20021;-41
2021/12/11 06:27:54;;;;;;;27.80;14.93;;;;;;;;;;5053038;28;20033;-41
2021/12/11 06:30:19;;;;;;;31.20;16.15;;;;;;;;;;5052553;28;20029;-41
2021/12/11 06:32:47;;;;;;;22.80;13.40;;;;;;;;;;5052641;28;20028;-41
2021/12/11 06:35:25;;;;;;;30.67;15.32;;;;;;;;;;5052811;28;20100;-42
2021/12/11 06:37:51;;;;;;;38.95;20.10;;;;;;;;;;5052322;28;20028;-42
2021/12/11 06:40:17;;;;;;;27.13;9.70;;;;;;;;;;5051918;28;20036;-42
2021/12/11 06:42:43;;;;;;;21.83;10.10;;;;;;;;;;5052468;28;20021;-41
2021/12/11 06:45:08;;;;;;;13.35;7.15;;;;;;;;;;5052579;28;20040;-41
2021/12/11 06:47:34;;;;;;;20.17;9.40;;;;;;;;;;5052851;28;20025;-41
2021/12/11 06:50:04;;;;;;;24.40;11.93;;;;;;;;;;5052306;28;20416;-43
2021/12/11 06:52:29;;;;;;;17.95;10.13;;;;;;;;;;5052378;28;20029;-41
2021/12/11 06:54:55;;;;;;;20.23;9.63;;;;;;;;;;5052596;28;20040;-43
2021/12/11 06:57:21;;;;;;;18.00;9.93;;;;;;;;;;5052581;28;20474;-43
2021/12/11 06:59:47;;;;;;;26.35;13.45;;;;;;;;;;5052323;28;20533;-43
2021/12/11 07:02:15;;;;;;;27.70;12.73;;;;;;;;;;5052174;28;20021;-43
2021/12/11 07:04:41;;;;;;;21.27;10.18;;;;;;;;;;5052191;28;20028;-42
2021/12/11 07:07:06;;;;;;;16.25;8.05;;;;;;;;;;5052448;28;20031;-41
2021/12/11 07:09:32;;;;;;;25.15;12.02;;;;;;;;;;5051941;28;20102;-42
2021/12/11 07:11:59;;;;;;;16.75;10.02;;;;;;;;;;5052323;28;20436;-42
2021/12/11 07:14:28;;;;;;;17.50;10.73;;;;;;;;;;5052361;28;20025;-41
2021/12/11 07:16:55;;;;;;;23.48;11.98;;;;;;;;;;5052111;28;20070;-42
2021/12/11 07:19:20;;;;;;;21.38;10.45;;;;;;;;;;5052038;28;20033;-41
2021/12/11 07:21:50;;;;;;;22.13;10.55;;;;;;;;;;5052341;28;20026;-42
2021/12/11 07:24:21;;;;;;;27.70;12.40;;;;;;;;;;5052052;28;20025;-43
2021/12/11 07:26:46;;;;;;;;;;;;;;;;;;5034945;28;20040;-41
2021/12/11 07:29:16;;;;;;;29.15;13.45;;;;;;;;;;5052236;28;19917;-41
2021/12/11 07:31:44;;;;;;;26.17;13.65;;;;;;;;;;5034179;28;20377;-42
2021/12/11 07:34:10;;;;;;;28.00;11.57;;;;;;;;;;5052329;28;20033;-42
2021/12/11 07:36:36;;;;;;;25.02;10.77;;;;;;;;;;5052182;28;20033;-44
2021/12/11 07:39:07;;;;;;;22.60;11.88;;;;;;;;;;5052157;28;20554;-42
2021/12/11 07:41:33;;;;;;;22.42;11.18;;;;;;;;;;5052110;28;20424;-43
2021/12/11 07:43:59;;;;;;;23.08;11.07;;;;;;;;;;5051911;28;20041;-42
2021/12/11 07:46:28;;;;;;;22.90;11.10;;;;;;;;;;5052501;28;20405;-41
2021/12/11 07:48:57;;;;;;;32.65;13.65;;;;;;;;;;5052343;28;20437;-45
2021/12/11 07:51:26;;;;;;;30.48;13.35;;;;;;;;;;5055339;28;20433;-45
2021/12/11 07:53:52;;;;;;;23.38;12.05;;;;;;;;;;5056160;28;20052;-42
2021/12/11 07:56:18;;;;;;;26.10;12.10;;;;;;;;;;5055740;28;20079;-42
2021/12/11 07:58:46;;;;;;;22.63;12.43;;;;;;;;;;5055630;28;20040;-41
2021/12/11 08:01:12;;;;;;;18.70;9.45;;;;;;;;;;5055299;28;20064;-43
2021/12/11 08:03:38;;;;;;;29.10;13.48;;;;;;;;;;5055553;28;20064;-44
2021/12/11 08:06:06;;;;;;;20.70;12.00;;;;;;;;;;5055205;28;20025;-44
2021/12/11 08:08:32;;;;;;;29.83;15.68;;;;;;;;;;5055075;28;20024;-44
2021/12/11 08:11:01;;;;;;;27.98;13.95;;;;;;;;;;5055036;28;20045;-43
2021/12/11 08:13:27;;;;;;;30.40;15.40;;;;;;;;;;5055193;28;20024;-44
2021/12/11 08:15:55;;;;;;;30.75;15.50;;;;;;;;;;5055418;28;20048;-44
2021/12/11 08:18:21;;;;;;;30.83;14.23;;;;;;;;;;5055338;28;20032;-44
2021/12/11 08:20:47;;;;;;;31.73;16.50;;;;;;;;;;5055388;28;20029;-45
2021/12/11 08:23:14;;;;;;;29.45;14.88;;;;;;;;;;5055286;28;20366;-44
2021/12/11 08:25:43;;;;;;;34.88;16.70;;;;;;;;;;5055284;28;20028;-44
2021/12/11 08:28:11;;;;;;;29.33;13.27;;;;;;;;;;5054854;28;20454;-44
2021/12/11 08:30:39;;;;;;;34.00;16.50;;;;;;;;;;5055152;28;20380;-45
2021/12/11 08:33:05;;;;;;;26.23;12.27;;;;;;;;;;5054719;28;20029;-43
2021/12/11 08:35:32;;;;;;;33.63;15.82;;;;;;;;;;5055351;28;20418;-44
2021/12/11 08:37:57;;;;;;;25.48;13.68;;;;;;;;;;5054721;28;20052;-43
2021/12/11 08:40:30;;;;;;;33.80;17.35;;;;;;;;;;5054953;28;20071;-45
2021/12/11 08:42:56;;;;;;;29.17;16.00;;;;;;;;;;5054589;28;20032;-44
2021/12/11 08:45:26;;;;;;;34.92;15.65;;;;;;;;;;5054555;28;20029;-43
2021/12/11 08:48:00;;;;;;;37.38;17.23;;;;;;;;;;5054521;28;20029;-45
2021/12/11 08:50:31;;;;;;;33.17;14.95;;;;;;;;;;5054550;28;20477;-45
2021/12/11 08:52:58;;;;;;;31.73;14.70;;;;;;;;;;5054714;28;20033;-45
2021/12/11 08:55:30;;;;;;;34.90;16.02;;;;;;;;;;5054357;28;20025;-44
2021/12/11 08:57:57;;;;;;;39.78;15.88;;;;;;;;;;5054672;28;20106;-46
2021/12/11 09:00:44;;;;;;;36.28;15.90;;;;;;;;;;5054667;28;20403;-45
2021/12/11 09:03:30;;;;;;;44.47;16.75;;;;;;;;;;5053804;28;20378;-43
2021/12/11 09:06:05;;;;;;;28.20;13.07;;;;;;;;;;5054720;28;20040;-45
2021/12/11 09:09:08;;;;;;;36.28;16.58;;;;;;;;;;5054205;28;20029;-42
2021/12/11 09:11:41;;;;;;;40.60;16.83;;;;;;;;;;5054131;28;20037;-44
2021/12/11 09:14:45;;;;;;;39.70;17.95;;;;;;;;;;5054135;28;20025;-42
2021/12/11 09:17:33;;;;;;;37.90;17.77;;;;;;;;;;5054439;28;20110;-45
2021/12/11 09:20:24;;;;;;;43.00;16.42;;;;;;;;;;5054034;28;20119;-42
2021/12/11 09:22:55;;;;;;;35.70;14.30;;;;;;;;;;5054092;28;20033;-43
2021/12/11 09:25:26;;;;;;;40.55;18.60;;;;;;;;;;5053890;28;20120;-44
2021/12/11 09:28:10;;;;;;;42.15;17.25;;;;;;;;;;5053761;28;20033;-45
2021/12/11 09:30:47;;;;;;;44.28;18.00;;;;;;;;;;5054024;28;20021;-45
2021/12/11 09:33:24;;;;;;;38.28;16.52;;;;;;;;;;5053622;28;20021;-44
2021/12/11 09:36:03;;;;;;;42.58;16.92;;;;;;;;;;5053877;28;20064;-45
2021/12/11 09:38:33;;;;;;;37.47;15.88;;;;;;;;;;5053958;28;20025;-45
2021/12/11 09:40:59;;;;;;;35.63;13.90;;;;;;;;;;5053616;28;20029;-44
2021/12/11 09:43:35;;;;;;;37.17;16.27;;;;;;;;;;5053549;28;20032;-45
2021/12/11 09:46:04;;;;;;;37.42;17.50;;;;;;;;;;5053762;28;20017;-45
2021/12/11 09:48:29;;;;;;;42.28;17.77;;;;;;;;;;5053166;28;20119;-45
2021/12/11 09:51:02;;;;;;;36.25;15.32;;;;;;;;;;5053595;28;20115;-45
2021/12/11 09:53:37;;;;;;;37.72;16.17;;;;;;;;;;5053294;28;20489;-44
2021/12/11 09:56:13;;;;;;;40.10;16.17;;;;;;;;;;5053154;28;20032;-46
2021/12/11 09:58:40;;;;;;;33.60;15.25;;;;;;;;;;5053507;28;20033;-45
2021/12/11 10:01:23;;;;;;;32.22;14.15;;;;;;;;;;5053110;28;20381;-46
2021/12/11 10:04:00;;;;;;;38.90;16.38;;;;;;;;;;5050532;28;20521;-45
2021/12/11 10:06:43;;;;;;;35.10;15.57;;;;;;;;;;5049977;28;20063;-45
2021/12/11 10:09:18;;;;;;;36.42;15.68;;;;;;;;;;5050494;28;20392;-43
2021/12/11 10:12:08;;;;;;;31.73;14.65;;;;;;;;;;5001636;28;20045;-44
2021/12/11 10:14:40;;;;;;;33.55;15.55;;;;;;;;;;5003698;28;20022;-44
2021/12/11 10:17:17;;;;;;;30.95;13.73;;;;;;;;;;5003356;28;20047;-46
2021/12/11 10:19:44;;;;;;;27.85;12.90;;;;;;;;;;5001035;28;20030;-45
2021/12/11 10:22:18;;;;;;;29.33;13.40;;;;;;;;;;5002810;28;20018;-45
2021/12/11 10:24:44;;;;;;;27.40;13.63;;;;;;;;;;5000588;28;20022;-45
2021/12/11 10:27:14;;;;;;;29.30;13.93;;;;;;;;;;5011305;28;20018;-47
2021/12/11 10:29:42;;;;;;;29.23;15.75;;;;;;;;;;5002739;28;20030;-44
2021/12/11 10:32:14;;;;;;;29.05;14.30;;;;;;;;;;5001820;28;20033;-48
2021/12/11 10:34:42;;;;;;;36.95;15.15;;;;;;;;;;4999837;28;20042;-45
2021/12/11 10:37:15;;;;;;;36.05;14.95;;;;;;;;;;5001008;28;20022;-46
2021/12/11 10:39:45;;;;;;;37.30;15.73;;;;;;;;;;5000301;28;20037;-44
2021/12/11 10:42:11;;;;;;;31.27;15.40;;;;;;;;;;5002016;28;20030;-45
2021/12/11 10:44:41;;;;;;;29.70;13.15;;;;;;;;;;5003447;28;20498;-46
2021/12/11 10:47:23;;;;;;;30.75;12.73;;;;;;;;;;4993454;28;20085;-46
2021/12/11 10:49:50;;;;;;;32.38;14.95;;;;;;;;;;4992996;28;20037;-45
2021/12/11 10:52:18;;;;;;;30.83;12.75;;;;;;;;;;4993149;28;20026;-46
2021/12/11 10:54:45;;;;;;;32.22;14.40;;;;;;;;;;4993345;28;20105;-45
2021/12/11 10:57:11;;;;;;;30.33;13.38;;;;;;;;;;4993286;28;20026;-45
2021/12/11 10:59:40;;;;;;;30.83;14.75;;;;;;;;;;4993254;28;20064;-46
2021/12/11 11:02:10;;;;;;;34.72;14.57;;;;;;;;;;4993095;28;20023;-45
2021/12/11 11:04:38;;;;;;;;;;;;;;;;;;4993403;28;20022;-44
2021/12/11 11:07:05;;;;;;;26.27;12.60;;;;;;;;;;4993212;28;19913;-46
2021/12/11 11:09:31;;;;;;;29.20;13.63;;;;;;;;;;4996314;28;20027;-45
2021/12/11 11:12:01;;;;;;;26.17;12.02;;;;;;;;;;5036196;28;20056;-46
2021/12/11 11:14:27;;;;;;;32.03;13.77;;;;;;;;;;5045336;28;20036;-43
2021/12/11 11:17:07;;;;;;;23.50;11.52;;;;;;;;;;5049865;28;20029;-46
2021/12/11 11:19:34;;;;;;;23.98;12.15;;;;;;;;;;5050083;28;20031;-45
2021/12/11 11:22:03;;;;;;;26.23;12.02;;;;;;;;;;5050705;28;20075;-45
2021/12/11 11:24:32;;;;;;;23.52;11.88;;;;;;;;;;5033444;28;20029;-45
2021/12/11 11:26:59;;;;;;;22.48;11.63;;;;;;;;;;5054572;28;20470;-46
2021/12/11 11:29:27;;;;;;;24.33;11.98;;;;;;;;;;5055473;28;20033;-46
2021/12/11 11:31:56;;;;;;;24.63;10.85;;;;;;;;;;5055695;28;20029;-47
2021/12/11 11:34:26;;;;;;;25.70;11.70;;;;;;;;;;5054442;28;20116;-44
2021/12/11 11:36:54;;;;;;;23.40;12.38;;;;;;;;;;5054482;28;20285;-45
2021/12/11 11:39:22;;;;;;;24.77;11.55;;;;;;;;;;5053501;28;20462;-43
2021/12/11 11:41:53;;;;;;;27.58;12.57;;;;;;;;;;5055538;28;20033;-43
2021/12/11 11:44:22;;;;;;;21.08;8.43;;;;;;;;;;5051616;28;20033;-43
2021/12/11 11:46:49;;;;;;;21.65;11.13;;;;;;;;;;5053536;28;20545;-44
2021/12/11 11:49:17;;;;;;;24.60;11.15;;;;;;;;;;5054114;28;20128;-43
2021/12/11 11:52:00;;;;;;;19.80;10.35;;;;;;;;;;5053994;28;20104;-43
2021/12/11 11:54:28;;;;;;;23.83;11.05;;;;;;;;;;5054267;28;20441;-42
2021/12/11 11:57:07;;;;;;;20.83;10.75;;;;;;;;;;5054014;28;20025;-43
2021/12/11 11:59:34;;;;;;;22.17;10.43;;;;;;;;;;5054261;28;20032;-42
2021/12/11 12:02:08;;;;;;;21.60;10.25;;;;;;;;;;5054124;28;20025;-43
2021/12/11 12:04:35;;;;;;;19.10;9.70;;;;;;;;;;5054078;28;20048;-43
2021/12/11 12:07:03;;;;;;;18.40;9.65;;;;;;;;;;5054080;28;20033;-43
2021/12/11 12:09:37;;;;;;;19.75;10.68;;;;;;;;;;5053594;28;20501;-43
2021/12/11 12:12:04;;;;;;;18.95;10.25;;;;;;;;;;5053860;28;20098;-43
2021/12/11 12:14:32;;;;;;;19.05;9.23;;;;;;;;;;5053990;28;20057;-42
2021/12/11 12:16:59;;;;;;;19.67;9.45;;;;;;;;;;5053474;28;20024;-43
2021/12/11 12:19:26;;;;;;;20.63;9.38;;;;;;;;;;5052951;28;20028;-43
2021/12/11 12:21:56;;;;;;;19.65;9.82;;;;;;;;;;5052821;28;20076;-43
2021/12/11 12:24:26;;;;;;;19.83;10.07;;;;;;;;;;5053183;28;20035;-43
2021/12/11 12:26:52;;;;;;;15.88;8.90;;;;;;;;;;5047530;28;20715;-43
2021/12/11 12:29:20;;;;;;;17.98;9.20;;;;;;;;;;5053037;28;20120;-43
2021/12/11 12:31:51;;;;;;;16.20;8.23;;;;;;;;;;5052932;28;20064;-43
2021/12/11 12:34:19;;;;;;;18.15;10.00;;;;;;;;;;5051157;28;20052;-44
2021/12/11 12:36:45;;;;;;;22.73;9.55;;;;;;;;;;5051548;28;20028;-46
2021/12/11 12:39:12;;;;;;;21.27;11.30;;;;;;;;;;5052164;28;20033;-42
2021/12/11 12:41:53;;;;;;;19.10;10.13;;;;;;;;;;5053133;28;20036;-42
2021/12/11 12:44:23;;;;;;;18.58;9.68;;;;;;;;;;5052656;28;20085;-42
2021/12/11 12:47:05;;;;;;;17.60;10.07;;;;;;;;;;5052387;28;20055;-42
2021/12/11 12:49:34;;;;;;;18.20;9.98;;;;;;;;;;5050009;28;20081;-44
2021/12/11 12:52:08;;;;;;;19.33;11.25;;;;;;;;;;5052606;28;20059;-46
2021/12/11 12:54:34;;;;;;;18.70;9.48;;;;;;;;;;5052516;28;20055;-43
2021/12/11 12:57:12;;;;;;;19.27;10.07;;;;;;;;;;5052278;28;20025;-42
2021/12/11 12:59:46;;;;;;;17.58;8.98;;;;;;;;;;5052442;28;20025;-43
2021/12/11 13:02:17;;;;;;;20.10;10.65;;;;;;;;;;5052571;28;20032;-43
2021/12/11 13:05:00;;;;;;;17.10;8.82;;;;;;;;;;5047611;28;20025;-46
2021/12/11 13:07:26;;;;;;;19.15;10.50;;;;;;;;;;5048292;28;20100;-44
2021/12/11 13:09:56;;;;;;;20.90;10.57;;;;;;;;;;5051321;28;20620;-43
2021/12/11 13:12:31;;;;;;;18.75;10.35;;;;;;;;;;5047041;28;20448;-43
2021/12/11 13:15:04;;;;;;;22.40;10.48;;;;;;;;;;5051914;28;20068;-43
2021/12/11 13:17:38;;;;;;;19.38;9.55;;;;;;;;;;5052096;28;20028;-43
2021/12/11 13:20:13;;;;;;;19.90;10.13;;;;;;;;;;5047136;28;20044;-44
2021/12/11 13:22:43;;;;;;;19.00;9.52;;;;;;;;;;5052208;28;20028;-43
2021/12/11 13:25:19;;;;;;;16.80;8.53;;;;;;;;;;5052334;28;20035;-42
2021/12/11 13:27:48;;;;;;;17.50;9.43;;;;;;;;;;5034885;28;20111;-46
2021/12/11 13:30:22;;;;;;;12.85;7.78;;;;;;;;;;5051510;28;20166;-45
2021/12/11 13:32:48;;;;;;;15.82;9.25;;;;;;;;;;5050976;28;20055;-45
2021/12/11 13:35:19;;;;;;;19.27;10.07;;;;;;;;;;5050944;28;20060;-45
2021/12/11 13:37:46;;;;;;;20.05;10.25;;;;;;;;;;5051771;28;20025;-44
2021/12/11 13:40:14;;;;;;;16.60;9.32;;;;;;;;;;5051959;28;20029;-46
2021/12/11 13:42:41;;;;;;;21.10;9.82;;;;;;;;;;5051720;28;20075;-41
2021/12/11 13:45:32;;;;;;;18.27;9.57;;;;;;;;;;5052223;28;20025;-42
2021/12/11 13:48:00;;;;;;;17.30;10.23;;;;;;;;;;5052651;28;20036;-43
2021/12/11 13:50:35;;;;;;;16.85;9.82;;;;;;;;;;5035611;28;20068;-44
2021/12/11 13:53:01;;;;;;;19.02;9.38;;;;;;;;;;5053321;28;20029;-44
2021/12/11 13:55:27;;;;;;;17.33;10.10;;;;;;;;;;5053254;28;20048;-42
2021/12/11 13:57:53;;;;;;;19.20;9.50;;;;;;;;;;5050901;28;20614;-43
2021/12/11 14:00:39;;;;;;;16.80;9.32;;;;;;;;;;5053179;28;20045;-43
2021/12/11 14:03:05;;;;;;;16.08;9.18;;;;;;;;;;5053045;28;20021;-42
2021/12/11 14:05:32;;;;;;;17.35;9.35;;;;;;;;;;5051543;28;20025;-44
2021/12/11 14:07:58;;;;;;;19.98;10.10;;;;;;;;;;5053131;28;20064;-42
2021/12/11 14:10:31;;;;;;;14.95;8.68;;;;;;;;;;5052828;28;20069;-43
2021/12/11 14:12:57;;;;;;;16.05;9.65;;;;;;;;;;5053172;28;20060;-42
2021/12/11 14:15:25;;;;;;;18.40;9.55;;;;;;;;;;5053200;28;20021;-42
2021/12/11 14:17:50;;;;;;;18.00;10.30;;;;;;;;;;5053186;28;20025;-42
2021/12/11 14:20:19;;;;;;;19.65;9.77;;;;;;;;;;5052716;28;20128;-42
2021/12/11 14:22:45;;;;;;;20.48;10.02;;;;;;;;;;5053110;28;20112;-42
2021/12/11 14:25:14;;;;;;;23.05;10.85;;;;;;;;;;5052735;28;20025;-42
2021/12/11 14:27:40;;;;;;;19.67;11.23;;;;;;;;;;5052826;28;20028;-42
2021/12/11 14:30:12;;;;;;;20.42;11.13;;;;;;;;;;5052844;28;20094;-43
2021/12/11 14:32:50;;;;;;;19.15;10.23;;;;;;;;;;5052639;28;20024;-43
2021/12/11 14:35:17;;;;;;;19.33;11.45;;;;;;;;;;5052573;28;20068;-42
2021/12/11 14:37:44;;;;;;;24.33;12.15;;;;;;;;;;5052814;28;20017;-42
2021/12/11 14:40:13;;;;;;;23.38;11.95;;;;;;;;;;5052513;28;20044;-45
2021/12/11 14:42:41;;;;;;;25.35;12.48;;;;;;;;;;5052414;28;20017;-43
2021/12/11 14:45:11;;;;;;;21.83;11.45;;;;;;;;;;5052725;28;20032;-42
2021/12/11 14:47:37;;;;;;;23.67;12.30;;;;;;;;;;5052422;28;20029;-42
2021/12/11 14:50:06;;;;;;;24.10;12.32;;;;;;;;;;5052455;28;20098;-43
2021/12/11 14:52:32;;;;;;;28.17;13.20;;;;;;;;;;5052355;28;20025;-43
2021/12/11 14:55:03;;;;;;;23.88;11.98;;;;;;;;;;5052505;28;20104;-44